sensor_id;sensor_type;location;lat;lon;timestamp;pressure;altitude;pressure_sealevel;temperature;humidity
26489;BME280;14169;43.684;10.484;2022-09-14T00:00:14;101383.38;;;23.65;100.00
26489;BME280;14169;43.684;10.484;2022-09-14T00:02:39;101380.84;;;23.63;100.00
26489;BME280;14169;43.684;10.484;2022-09-14T00:05:04;101374.25;;;23.56;100.00
26489;BME280;14169;43.684;10.484;2022-09-14T00:07:30;101373.97;;;23.48;100.00
26489;BME280;14169;43.684;10.484;2022-09-14T00:09:55;101367.53;;;23.39;100.00
26489;BME280;14169;43.684;10.484;2022-09-14T00:12:20;101357.88;;;23.38;100.00
26489;BME280;14169;43.684;10.484;2022-09-14T00:14:46;101364.38;;;23.34;100.00
26489;BME280;14169;43.684;10.484;2022-09-14T00:17:11;101368.34;;;23.29;100.00
26489;BME280;14169;43.684;10.484;2022-09-14T00:19:37;101365.91;;;23.26;100.00
26489;BME280;14169;43.684;10.484;2022-09-14T00:22:02;101385.63;;;23.23;100.00
26489;BME280;14169;43.684;10.484;2022-09-14T00:24:28;101379.66;;;23.20;100.00
26489;BME280;14169;43.684;10.484;2022-09-14T00:26:56;101379.78;;;23.18;100.00
26489;BME280;14169;43.684;10.484;2022-09-14T00:29:22;101377.34;;;23.15;100.00
26489;BME280;14169;43.684;10.484;2022-09-14T00:31:48;101369.47;;;23.14;100.00
26489;BME280;14169;43.684;10.484;2022-09-14T00:34:14;101357.50;;;23.08;100.00
26489;BME280;14169;43.684;10.484;2022-09-14T00:36:41;101366.66;;;23.04;100.00
26489;BME280;14169;43.684;10.484;2022-09-14T00:39:07;101360.72;;;23.01;100.00
26489;BME280;14169;43.684;10.484;2022-09-14T00:41:33;101359.25;;;22.97;100.00
26489;BME280;14169;43.684;10.484;2022-09-14T00:44:00;101360.44;;;22.93;100.00
26489;BME280;14169;43.684;10.484;2022-09-14T00:46:30;101348.41;;;22.87;100.00
26489;BME280;14169;43.684;10.484;2022-09-14T00:48:56;101344.28;;;22.83;100.00
26489;BME280;14169;43.684;10.484;2022-09-14T00:51:23;101346.03;;;22.72;100.00
26489;BME280;14169;43.684;10.484;2022-09-14T00:53:49;101351.88;;;22.64;100.00
26489;BME280;14169;43.684;10.484;2022-09-14T00:56:14;101354.97;;;22.58;100.00
26489;BME280;14169;43.684;10.484;2022-09-14T00:58:40;101351.25;;;22.60;100.00
26489;BME280;14169;43.684;10.484;2022-09-14T01:01:07;101352.56;;;22.55;100.00
26489;BME280;14169;43.684;10.484;2022-09-14T01:03:33;101357.88;;;22.55;100.00
26489;BME280;14169;43.684;10.484;2022-09-14T01:19:05;101327.81;;;22.42;100.00
26489;BME280;14169;43.684;10.484;2022-09-14T01:21:35;101331.34;;;22.42;100.00
26489;BME280;14169;43.684;10.484;2022-09-14T01:36:29;101308.75;;;22.24;100.00
26489;BME280;14169;43.684;10.484;2022-09-14T01:38:56;101306.63;;;22.17;100.00
26489;BME280;14169;43.684;10.484;2022-09-14T01:41:24;101297.38;;;22.10;100.00
26489;BME280;14169;43.684;10.484;2022-09-14T01:46:50;101299.63;;;22.03;100.00
26489;BME280;14169;43.684;10.484;2022-09-14T01:49:25;101300.50;;;22.04;100.00
26489;BME280;14169;43.684;10.484;2022-09-14T01:52:03;101311.19;;;22.02;100.00
26489;BME280;14169;43.684;10.484;2022-09-14T01:54:38;101310.38;;;22.02;100.00
26489;BME280;14169;43.684;10.484;2022-09-14T01:57:08;101311.84;;;22.06;100.00
26489;BME280;14169;43.684;10.484;2022-09-14T01:59:37;101303.78;;;22.07;100.00
26489;BME280;14169;43.684;10.484;2022-09-14T02:02:05;101299.94;;;22.11;100.00
26489;BME280;14169;43.684;10.484;2022-09-14T02:05:08;101288.97;;;22.16;100.00
26489;BME280;14169;43.684;10.484;2022-09-14T02:07:25;101278.16;;;22.19;100.00
26489;BME280;14169;43.684;10.484;2022-09-14T02:09:51;101273.06;;;22.16;100.00
26489;BME280;14169;43.684;10.484;2022-09-14T02:12:18;101267.25;;;22.11;100.00
26489;BME280;14169;43.684;10.484;2022-09-14T02:14:44;101265.22;;;22.14;100.00
26489;BME280;14169;43.684;10.484;2022-09-14T02:17:10;101268.59;;;22.16;100.00
26489;BME280;14169;43.684;10.484;2022-09-14T02:19:39;101267.75;;;22.16;100.00
26489;BME280;14169;43.684;10.484;2022-09-14T02:22:05;101266.69;;;22.18;100.00
26489;BME280;14169;43.684;10.484;2022-09-14T02:24:31;101272.84;;;22.19;100.00
26489;BME280;14169;43.684;10.484;2022-09-14T02:26:56;101268.28;;;22.21;100.00
26489;BME280;14169;43.684;10.484;2022-09-14T02:29:22;101271.06;;;22.19;100.00
26489;BME280;14169;43.684;10.484;2022-09-14T02:34:20;101274.66;;;22.18;100.00
26489;BME280;14169;43.684;10.484;2022-09-14T02:41:47;101286.88;;;22.21;100.00
26489;BME280;14169;43.684;10.484;2022-09-14T02:46:52;101288.50;;;22.23;100.00
26489;BME280;14169;43.684;10.484;2022-09-14T02:52:03;101285.41;;;22.29;100.00
26489;BME280;14169;43.684;10.484;2022-09-14T02:57:00;101280.59;;;22.34;100.00
26489;BME280;14169;43.684;10.484;2022-09-14T02:59:25;101270.59;;;22.38;100.00
26489;BME280;14169;43.684;10.484;2022-09-14T03:01:51;101270.25;;;22.42;100.00
26489;BME280;14169;43.684;10.484;2022-09-14T03:04:16;101270.88;;;22.46;100.00
26489;BME280;14169;43.684;10.484;2022-09-14T03:06:41;101271.41;;;22.51;100.00
26489;BME280;14169;43.684;10.484;2022-09-14T03:09:06;101270.22;;;22.55;100.00
26489;BME280;14169;43.684;10.484;2022-09-14T03:11:32;101277.22;;;22.56;100.00
26489;BME280;14169;43.684;10.484;2022-09-14T03:13:57;101273.09;;;22.52;100.00
26489;BME280;14169;43.684;10.484;2022-09-14T03:16:22;101266.22;;;22.49;100.00
26489;BME280;14169;43.684;10.484;2022-09-14T03:18:48;101269.81;;;22.48;100.00
26489;BME280;14169;43.684;10.484;2022-09-14T03:21:14;101265.69;;;22.44;100.00
26489;BME280;14169;43.684;10.484;2022-09-14T03:23:41;101263.03;;;22.44;100.00
26489;BME280;14169;43.684;10.484;2022-09-14T03:26:10;101261.56;;;22.40;100.00
26489;BME280;14169;43.684;10.484;2022-09-14T03:28:36;101259.75;;;22.41;100.00
26489;BME280;14169;43.684;10.484;2022-09-14T03:31:02;101265.06;;;22.41;100.00
26489;BME280;14169;43.684;10.484;2022-09-14T03:33:28;101257.97;;;22.41;100.00
26489;BME280;14169;43.684;10.484;2022-09-14T03:35:53;101256.97;;;22.42;100.00
26489;BME280;14169;43.684;10.484;2022-09-14T03:38:18;101264.00;;;22.43;100.00
26489;BME280;14169;43.684;10.484;2022-09-14T03:40:44;101260.50;;;22.43;100.00
26489;BME280;14169;43.684;10.484;2022-09-14T03:43:09;101258.69;;;22.43;100.00
26489;BME280;14169;43.684;10.484;2022-09-14T03:45:36;101256.25;;;22.40;100.00
26489;BME280;14169;43.684;10.484;2022-09-14T03:48:02;101251.38;;;22.34;100.00
26489;BME280;14169;43.684;10.484;2022-09-14T03:50:27;101257.75;;;22.32;100.00
26489;BME280;14169;43.684;10.484;2022-09-14T03:52:52;101259.78;;;22.28;100.00
26489;BME280;14169;43.684;10.484;2022-09-14T03:55:17;101253.88;;;22.25;100.00
26489;BME280;14169;43.684;10.484;2022-09-14T03:57:43;101253.41;;;22.18;100.00
26489;BME280;14169;43.684;10.484;2022-09-14T04:00:09;101253.41;;;22.18;100.00
26489;BME280;14169;43.684;10.484;2022-09-14T04:02:35;101248.97;;;22.19;100.00
26489;BME280;14169;43.684;10.484;2022-09-14T04:05:00;101240.13;;;22.18;100.00
26489;BME280;14169;43.684;10.484;2022-09-14T04:07:25;101239.97;;;22.21;100.00
26489;BME280;14169;43.684;10.484;2022-09-14T04:09:50;101250.34;;;22.24;100.00
26489;BME280;14169;43.684;10.484;2022-09-14T04:12:16;101251.22;;;22.25;100.00
26489;BME280;14169;43.684;10.484;2022-09-14T04:14:41;101248.44;;;22.26;100.00
26489;BME280;14169;43.684;10.484;2022-09-14T04:17:06;101254.59;;;22.27;100.00
26489;BME280;14169;43.684;10.484;2022-09-14T04:19:32;101252.88;;;22.26;100.00
26489;BME280;14169;43.684;10.484;2022-09-14T04:22:01;101250.88;;;22.29;100.00
26489;BME280;14169;43.684;10.484;2022-09-14T04:24:27;101237.50;;;22.31;100.00
26489;BME280;14169;43.684;10.484;2022-09-14T04:26:52;101233.84;;;22.32;100.00
26489;BME280;14169;43.684;10.484;2022-09-14T04:29:17;101235.44;;;22.34;100.00
26489;BME280;14169;43.684;10.484;2022-09-14T04:31:42;101234.28;;;22.38;100.00
26489;BME280;14169;43.684;10.484;2022-09-14T04:34:09;101234.28;;;22.38;100.00
26489;BME280;14169;43.684;10.484;2022-09-14T04:36:37;101231.63;;;22.38;100.00
26489;BME280;14169;43.684;10.484;2022-09-14T04:39:03;101244.03;;;22.38;100.00
26489;BME280;14169;43.684;10.484;2022-09-14T04:41:28;101247.78;;;22.35;100.00
26489;BME280;14169;43.684;10.484;2022-09-14T04:43:54;101251.63;;;22.31;100.00
26489;BME280;14169;43.684;10.484;2022-09-14T04:46:27;101251.81;;;22.28;100.00
26489;BME280;14169;43.684;10.484;2022-09-14T04:48:52;101255.66;;;22.24;100.00
26489;BME280;14169;43.684;10.484;2022-09-14T04:51:18;101247.81;;;22.23;100.00
26489;BME280;14169;43.684;10.484;2022-09-14T04:53:45;101251.63;;;22.19;100.00
26489;BME280;14169;43.684;10.484;2022-09-14T04:56:11;101244.72;;;22.16;100.00
26489;BME280;14169;43.684;10.484;2022-09-14T04:58:37;101256.38;;;22.14;100.00
26489;BME280;14169;43.684;10.484;2022-09-14T05:01:13;101260.97;;;22.12;100.00
26489;BME280;14169;43.684;10.484;2022-09-14T05:03:39;101260.75;;;22.15;100.00
26489;BME280;14169;43.684;10.484;2022-09-14T05:06:09;101250.88;;;22.17;100.00
26489;BME280;14169;43.684;10.484;2022-09-14T05:08:35;101242.78;;;22.18;100.00
26489;BME280;14169;43.684;10.484;2022-09-14T05:11:02;101242.50;;;22.23;100.00
26489;BME280;14169;43.684;10.484;2022-09-14T05:13:28;101243.13;;;22.26;100.00
26489;BME280;14169;43.684;10.484;2022-09-14T05:15:53;101237.59;;;22.29;100.00
26489;BME280;14169;43.684;10.484;2022-09-14T05:18:19;101238.22;;;22.33;100.00
26489;BME280;14169;43.684;10.484;2022-09-14T05:20:45;101225.56;;;22.36;100.00
26489;BME280;14169;43.684;10.484;2022-09-14T05:23:10;101223.53;;;22.40;100.00
26489;BME280;14169;43.684;10.484;2022-09-14T05:25:35;101231.03;;;22.46;100.00
26489;BME280;14169;43.684;10.484;2022-09-14T05:28:00;101224.22;;;22.54;100.00
26489;BME280;14169;43.684;10.484;2022-09-14T05:30:26;101212.41;;;22.58;100.00
26489;BME280;14169;43.684;10.484;2022-09-14T05:32:51;101222.81;;;22.61;100.00
26489;BME280;14169;43.684;10.484;2022-09-14T05:35:17;101220.66;;;22.66;100.00
26489;BME280;14169;43.684;10.484;2022-09-14T05:37:42;101215.13;;;22.69;100.00
26489;BME280;14169;43.684;10.484;2022-09-14T05:40:07;101223.84;;;22.72;100.00
26489;BME280;14169;43.684;10.484;2022-09-14T05:42:33;101215.75;;;22.73;100.00
26489;BME280;14169;43.684;10.484;2022-09-14T05:44:58;101214.63;;;22.76;100.00
26489;BME280;14169;43.684;10.484;2022-09-14T05:47:24;101205.59;;;22.78;100.00
26489;BME280;14169;43.684;10.484;2022-09-14T05:49:49;101196.03;;;22.76;100.00
26489;BME280;14169;43.684;10.484;2022-09-14T05:52:14;101193.38;;;22.76;100.00
26489;BME280;14169;43.684;10.484;2022-09-14T05:54:39;101189.28;;;22.72;100.00
26489;BME280;14169;43.684;10.484;2022-09-14T05:57:05;101183.84;;;22.73;100.00
26489;BME280;14169;43.684;10.484;2022-09-14T05:59:30;101185.41;;;22.76;100.00
26489;BME280;14169;43.684;10.484;2022-09-14T06:01:56;101175.63;;;22.76;100.00
26489;BME280;14169;43.684;10.484;2022-09-14T06:04:22;101187.00;;;22.78;100.00
26489;BME280;14169;43.684;10.484;2022-09-14T06:06:47;101180.38;;;22.84;100.00
26489;BME280;14169;43.684;10.484;2022-09-14T06:09:12;101186.06;;;22.90;100.00
26489;BME280;14169;43.684;10.484;2022-09-14T06:11:37;101194.59;;;22.95;100.00
26489;BME280;14169;43.684;10.484;2022-09-14T06:14:03;101203.78;;;23.02;100.00
26489;BME280;14169;43.684;10.484;2022-09-14T06:16:28;101218.53;;;23.06;100.00
26489;BME280;14169;43.684;10.484;2022-09-14T06:18:54;101217.66;;;23.06;100.00
26489;BME280;14169;43.684;10.484;2022-09-14T06:21:20;101206.94;;;23.07;100.00
26489;BME280;14169;43.684;10.484;2022-09-14T06:23:46;101219.03;;;23.11;100.00
26489;BME280;14169;43.684;10.484;2022-09-14T06:26:12;101220.50;;;23.15;100.00
26489;BME280;14169;43.684;10.484;2022-09-14T06:28:37;101234.06;;;23.23;100.00
26489;BME280;14169;43.684;10.484;2022-09-14T06:31:03;101230.19;;;23.27;100.00
26489;BME280;14169;43.684;10.484;2022-09-14T06:33:29;101238.78;;;23.31;100.00
26489;BME280;14169;43.684;10.484;2022-09-14T06:36:05;101230.19;;;23.38;100.00
26489;BME280;14169;43.684;10.484;2022-09-14T06:38:36;101229.22;;;23.39;100.00
26489;BME280;14169;43.684;10.484;2022-09-14T06:41:02;101230.69;;;23.43;100.00
26489;BME280;14169;43.684;10.484;2022-09-14T06:43:33;101217.88;;;23.48;100.00
26489;BME280;14169;43.684;10.484;2022-09-14T06:46:02;101214.75;;;23.54;100.00
26489;BME280;14169;43.684;10.484;2022-09-14T06:48:38;101228.44;;;23.61;100.00
26489;BME280;14169;43.684;10.484;2022-09-14T06:51:11;101233.63;;;23.74;100.00
26489;BME280;14169;43.684;10.484;2022-09-14T06:53:37;101253.59;;;23.90;100.00
26489;BME280;14169;43.684;10.484;2022-09-14T06:56:02;101268.25;;;23.96;100.00
26489;BME280;14169;43.684;10.484;2022-09-14T06:58:27;101296.78;;;24.16;100.00
26489;BME280;14169;43.684;10.484;2022-09-14T07:00:52;101312.56;;;24.30;100.00
26489;BME280;14169;43.684;10.484;2022-09-14T07:03:18;101326.59;;;24.43;100.00
26489;BME280;14169;43.684;10.484;2022-09-14T07:05:43;101336.38;;;24.54;100.00
26489;BME280;14169;43.684;10.484;2022-09-14T07:08:08;101349.19;;;24.71;100.00
26489;BME280;14169;43.684;10.484;2022-09-14T07:10:33;101355.56;;;24.79;100.00
26489;BME280;14169;43.684;10.484;2022-09-14T07:12:59;101365.16;;;24.82;100.00
26489;BME280;14169;43.684;10.484;2022-09-14T07:15:24;101369.63;;;24.81;100.00
26489;BME280;14169;43.684;10.484;2022-09-14T07:17:50;101394.25;;;24.85;100.00
26489;BME280;14169;43.684;10.484;2022-09-14T07:20:15;101411.06;;;24.85;100.00
26489;BME280;14169;43.684;10.484;2022-09-14T07:22:41;101419.06;;;24.85;100.00
26489;BME280;14169;43.684;10.484;2022-09-14T07:25:06;101428.75;;;24.86;100.00
26489;BME280;14169;43.684;10.484;2022-09-14T07:27:32;101434.31;;;24.83;100.00
26489;BME280;14169;43.684;10.484;2022-09-14T07:29:57;101442.94;;;24.87;100.00
26489;BME280;14169;43.684;10.484;2022-09-14T07:32:23;101441.59;;;24.92;100.00
26489;BME280;14169;43.684;10.484;2022-09-14T07:34:48;101442.81;;;24.99;100.00
26489;BME280;14169;43.684;10.484;2022-09-14T07:37:13;101450.81;;;25.10;100.00
26489;BME280;14169;43.684;10.484;2022-09-14T07:39:39;101454.56;;;25.19;100.00
26489;BME280;14169;43.684;10.484;2022-09-14T07:42:04;101454.06;;;25.25;100.00
26489;BME280;14169;43.684;10.484;2022-09-14T07:44:29;101464.47;;;25.28;100.00
26489;BME280;14169;43.684;10.484;2022-09-14T07:46:54;101466.19;;;25.29;100.00
26489;BME280;14169;43.684;10.484;2022-09-14T07:49:20;101464.09;;;25.33;100.00
26489;BME280;14169;43.684;10.484;2022-09-14T07:51:46;101454.75;;;25.38;100.00
26489;BME280;14169;43.684;10.484;2022-09-14T07:54:14;101436.41;;;25.45;100.00
26489;BME280;14169;43.684;10.484;2022-09-14T07:56:41;101436.84;;;25.50;100.00
26489;BME280;14169;43.684;10.484;2022-09-14T07:59:08;101451.03;;;25.61;100.00
26489;BME280;14169;43.684;10.484;2022-09-14T08:01:34;101444.47;;;25.65;100.00
26489;BME280;14169;43.684;10.484;2022-09-14T08:04:00;101448.47;;;25.71;100.00
26489;BME280;14169;43.684;10.484;2022-09-14T08:06:26;101454.25;;;25.76;100.00
26489;BME280;14169;43.684;10.484;2022-09-14T08:08:53;101446.81;;;25.79;100.00
26489;BME280;14169;43.684;10.484;2022-09-14T08:11:28;101447.69;;;25.80;100.00
26489;BME280;14169;43.684;10.484;2022-09-14T08:13:55;101460.00;;;25.92;100.00
26489;BME280;14169;43.684;10.484;2022-09-14T08:16:21;101466.78;;;25.96;100.00
26489;BME280;14169;43.684;10.484;2022-09-14T08:18:46;101476.47;;;25.97;100.00
26489;BME280;14169;43.684;10.484;2022-09-14T08:21:13;101485.91;;;26.01;100.00
26489;BME280;14169;43.684;10.484;2022-09-14T08:23:39;101491.00;;;26.04;100.00
26489;BME280;14169;43.684;10.484;2022-09-14T08:26:05;101499.16;;;26.02;100.00
26489;BME280;14169;43.684;10.484;2022-09-14T08:28:31;101500.06;;;25.92;100.00
26489;BME280;14169;43.684;10.484;2022-09-14T08:31:07;101500.31;;;25.89;100.00
26489;BME280;14169;43.684;10.484;2022-09-14T08:33:33;101511.00;;;25.89;100.00
26489;BME280;14169;43.684;10.484;2022-09-14T08:35:58;101524.09;;;25.92;100.00
26489;BME280;14169;43.684;10.484;2022-09-14T08:38:24;101544.72;;;25.90;100.00
26489;BME280;14169;43.684;10.484;2022-09-14T08:40:49;101565.22;;;25.89;100.00
26489;BME280;14169;43.684;10.484;2022-09-14T08:43:15;101577.78;;;25.78;100.00
26489;BME280;14169;43.684;10.484;2022-09-14T08:45:42;101583.16;;;25.67;100.00
26489;BME280;14169;43.684;10.484;2022-09-14T08:48:15;101590.06;;;25.58;100.00
26489;BME280;14169;43.684;10.484;2022-09-14T08:50:43;101596.03;;;25.51;100.00
26489;BME280;14169;43.684;10.484;2022-09-14T08:53:08;101601.72;;;25.46;100.00
26489;BME280;14169;43.684;10.484;2022-09-14T09:00:51;101587.88;;;25.41;100.00
26489;BME280;14169;43.684;10.484;2022-09-14T09:10:55;101579.09;;;25.83;100.00
26489;BME280;14169;43.684;10.484;2022-09-14T09:13:25;101581.25;;;26.00;100.00
26489;BME280;14169;43.684;10.484;2022-09-14T09:15:54;101563.47;;;26.11;100.00
26489;BME280;14169;43.684;10.484;2022-09-14T09:18:22;101559.00;;;26.32;100.00
26489;BME280;14169;43.684;10.484;2022-09-14T09:20:54;101560.78;;;26.42;100.00
26489;BME280;14169;43.684;10.484;2022-09-14T09:23:22;101548.19;;;26.54;100.00
26489;BME280;14169;43.684;10.484;2022-09-14T09:28:22;101524.69;;;26.78;100.00
26489;BME280;14169;43.684;10.484;2022-09-14T09:30:49;101515.63;;;26.90;100.00
26489;BME280;14169;43.684;10.484;2022-09-14T09:33:15;101511.47;;;27.07;100.00
26489;BME280;14169;43.684;10.484;2022-09-14T09:35:42;101512.19;;;27.18;100.00
26489;BME280;14169;43.684;10.484;2022-09-14T09:38:18;101503.78;;;27.32;100.00
26489;BME280;14169;43.684;10.484;2022-09-14T09:40:49;101501.69;;;27.55;100.00
26489;BME280;14169;43.684;10.484;2022-09-14T09:43:18;101486.06;;;27.79;100.00
26489;BME280;14169;43.684;10.484;2022-09-14T09:48:12;101470.00;;;28.08;100.00
26489;BME280;14169;43.684;10.484;2022-09-14T09:50:45;101444.78;;;28.10;100.00
26489;BME280;14169;43.684;10.484;2022-09-14T09:53:14;101441.63;;;28.15;100.00
26489;BME280;14169;43.684;10.484;2022-09-14T09:55:39;101432.47;;;28.17;100.00
26489;BME280;14169;43.684;10.484;2022-09-14T10:00:59;101424.97;;;28.21;100.00
26489;BME280;14169;43.684;10.484;2022-09-14T10:03:29;101424.84;;;28.03;100.00
26489;BME280;14169;43.684;10.484;2022-09-14T10:05:59;101421.94;;;28.06;100.00
26489;BME280;14169;43.684;10.484;2022-09-14T10:08:26;101419.75;;;28.19;100.00
26489;BME280;14169;43.684;10.484;2022-09-14T10:10:52;101404.22;;;28.23;100.00
26489;BME280;14169;43.684;10.484;2022-09-14T10:13:28;101404.00;;;28.16;100.00
26489;BME280;14169;43.684;10.484;2022-09-14T10:18:49;101401.94;;;28.37;100.00
26489;BME280;14169;43.684;10.484;2022-09-14T10:21:19;101395.06;;;28.52;100.00
26489;BME280;14169;43.684;10.484;2022-09-14T10:23:44;101377.72;;;28.84;100.00
26489;BME280;14169;43.684;10.484;2022-09-14T10:28:42;101363.72;;;29.43;100.00
26489;BME280;14169;43.684;10.484;2022-09-14T10:31:12;101369.25;;;29.41;100.00
26489;BME280;14169;43.684;10.484;2022-09-14T10:33:41;101364.88;;;29.58;100.00
26489;BME280;14169;43.684;10.484;2022-09-14T10:36:12;101371.72;;;29.52;100.00
26489;BME280;14169;43.684;10.484;2022-09-14T10:43:41;101363.22;;;30.08;100.00
26489;BME280;14169;43.684;10.484;2022-09-14T10:46:11;101372.47;;;30.39;100.00
26489;BME280;14169;43.684;10.484;2022-09-14T10:49:00;101374.25;;;30.64;100.00
26489;BME280;14169;43.684;10.484;2022-09-14T10:52:04;101371.75;;;30.71;100.00
26489;BME280;14169;43.684;10.484;2022-09-14T10:54:44;101369.91;;;30.63;100.00
26489;BME280;14169;43.684;10.484;2022-09-14T11:06:53;101370.53;;;29.72;100.00
26489;BME280;14169;43.684;10.484;2022-09-14T11:09:21;101375.69;;;29.66;100.00
26489;BME280;14169;43.684;10.484;2022-09-14T11:21:53;101343.41;;;30.84;100.00
26489;BME280;14169;43.684;10.484;2022-09-14T11:26:54;101318.38;;;30.92;100.00
26489;BME280;14169;43.684;10.484;2022-09-14T11:29:25;101311.00;;;30.44;100.00
26489;BME280;14169;43.684;10.484;2022-09-14T11:31:54;101303.22;;;30.99;100.00
26489;BME280;14169;43.684;10.484;2022-09-14T11:34:44;101291.09;;;31.27;100.00
26489;BME280;14169;43.684;10.484;2022-09-14T11:37:09;101301.53;;;30.90;100.00
26489;BME280;14169;43.684;10.484;2022-09-14T11:39:43;101304.84;;;30.68;100.00
26489;BME280;14169;43.684;10.484;2022-09-14T11:44:36;101304.78;;;30.52;100.00
26489;BME280;14169;43.684;10.484;2022-09-14T11:47:15;101297.34;;;30.38;100.00
26489;BME280;14169;43.684;10.484;2022-09-14T11:49:50;101302.84;;;30.78;100.00
26489;BME280;14169;43.684;10.484;2022-09-14T11:52:20;101297.31;;;30.87;100.00
26489;BME280;14169;43.684;10.484;2022-09-14T11:54:46;101288.75;;;31.16;100.00
26489;BME280;14169;43.684;10.484;2022-09-14T11:57:19;101282.38;;;31.41;100.00
26489;BME280;14169;43.684;10.484;2022-09-14T11:59:53;101283.72;;;31.37;100.00
26489;BME280;14169;43.684;10.484;2022-09-14T12:10:24;101255.63;;;31.08;100.00
26489;BME280;14169;43.684;10.484;2022-09-14T12:15:30;101245.34;;;31.43;100.00
26489;BME280;14169;43.684;10.484;2022-09-14T12:28:36;101238.31;;;32.58;100.00
26489;BME280;14169;43.684;10.484;2022-09-14T12:40:59;101246.00;;;32.92;100.00
26489;BME280;14169;43.684;10.484;2022-09-14T12:45:59;101235.84;;;33.17;100.00
26489;BME280;14169;43.684;10.484;2022-09-14T12:51:34;101251.50;;;33.36;100.00
26489;BME280;14169;43.684;10.484;2022-09-14T12:59:02;101220.25;;;32.82;100.00
26489;BME280;14169;43.684;10.484;2022-09-14T13:04:22;101222.75;;;33.72;100.00
26489;BME280;14169;43.684;10.484;2022-09-14T13:06:48;101218.84;;;33.75;100.00
26489;BME280;14169;43.684;10.484;2022-09-14T13:09:20;101215.97;;;33.62;100.00
26489;BME280;14169;43.684;10.484;2022-09-14T13:11:47;101200.88;;;33.53;100.00
26489;BME280;14169;43.684;10.484;2022-09-14T13:14:15;101202.69;;;33.23;100.00
26489;BME280;14169;43.684;10.484;2022-09-14T13:16:44;101209.59;;;33.25;100.00
26489;BME280;14169;43.684;10.484;2022-09-14T13:19:20;101212.19;;;33.33;100.00
26489;BME280;14169;43.684;10.484;2022-09-14T13:21:47;101202.16;;;33.71;100.00
26489;BME280;14169;43.684;10.484;2022-09-14T13:24:21;101200.03;;;33.81;100.00
26489;BME280;14169;43.684;10.484;2022-09-14T13:26:47;101196.81;;;33.78;100.00
26489;BME280;14169;43.684;10.484;2022-09-14T13:29:12;101215.38;;;34.10;100.00
26489;BME280;14169;43.684;10.484;2022-09-14T13:31:39;101217.53;;;33.85;100.00
26489;BME280;14169;43.684;10.484;2022-09-14T13:34:12;101200.84;;;33.96;100.00
26489;BME280;14169;43.684;10.484;2022-09-14T13:36:41;101204.16;;;34.28;100.00
26489;BME280;14169;43.684;10.484;2022-09-14T13:41:48;101193.97;;;34.30;100.00
26489;BME280;14169;43.684;10.484;2022-09-14T13:44:14;101206.66;;;34.29;100.00
26489;BME280;14169;43.684;10.484;2022-09-14T13:46:39;101207.50;;;34.30;100.00
26489;BME280;14169;43.684;10.484;2022-09-14T13:49:05;101199.63;;;34.35;100.00
26489;BME280;14169;43.684;10.484;2022-09-14T13:51:31;101202.72;;;33.96;100.00
26489;BME280;14169;43.684;10.484;2022-09-14T13:53:57;101215.75;;;32.97;100.00
26489;BME280;14169;43.684;10.484;2022-09-14T13:56:32;101216.53;;;32.60;100.00
26489;BME280;14169;43.684;10.484;2022-09-14T14:01:48;101207.56;;;33.71;100.00
26489;BME280;14169;43.684;10.484;2022-09-14T14:04:22;101218.16;;;34.16;100.00
26489;BME280;14169;43.684;10.484;2022-09-14T14:06:57;101215.00;;;34.49;100.00
26489;BME280;14169;43.684;10.484;2022-09-14T14:09:22;101225.75;;;34.42;100.00
26489;BME280;14169;43.684;10.484;2022-09-14T14:11:51;101219.00;;;34.17;100.00
26489;BME280;14169;43.684;10.484;2022-09-14T14:14:20;101221.56;;;33.46;100.00
26489;BME280;14169;43.684;10.484;2022-09-14T14:19:30;101220.19;;;32.36;100.00
26489;BME280;14169;43.684;10.484;2022-09-14T14:24:39;101234.44;;;31.84;100.00
26489;BME280;14169;43.684;10.484;2022-09-14T14:27:05;101248.31;;;31.56;100.00
26489;BME280;14169;43.684;10.484;2022-09-14T14:29:30;101241.47;;;31.22;100.00
26489;BME280;14169;43.684;10.484;2022-09-14T14:31:56;101251.16;;;30.74;100.00
26489;BME280;14169;43.684;10.484;2022-09-14T14:34:26;101256.94;;;30.22;100.00
26489;BME280;14169;43.684;10.484;2022-09-14T14:36:52;101276.28;;;29.91;100.00
26489;BME280;14169;43.684;10.484;2022-09-14T14:39:19;101260.50;;;29.71;100.00
26489;BME280;14169;43.684;10.484;2022-09-14T14:41:44;101258.75;;;29.54;100.00
26489;BME280;14169;43.684;10.484;2022-09-14T14:44:17;101263.38;;;29.44;100.00
26489;BME280;14169;43.684;10.484;2022-09-14T14:46:43;101279.84;;;29.23;100.00
26489;BME280;14169;43.684;10.484;2022-09-14T14:49:10;101265.19;;;29.00;100.00
26489;BME280;14169;43.684;10.484;2022-09-14T14:51:36;101268.94;;;28.89;100.00
26489;BME280;14169;43.684;10.484;2022-09-14T14:54:01;101267.03;;;28.82;100.00
26489;BME280;14169;43.684;10.484;2022-09-14T14:56:26;101263.34;;;28.83;100.00
26489;BME280;14169;43.684;10.484;2022-09-14T14:58:52;101274.06;;;28.83;100.00
26489;BME280;14169;43.684;10.484;2022-09-14T15:01:17;101264.91;;;28.68;100.00
26489;BME280;14169;43.684;10.484;2022-09-14T15:03:43;101272.03;;;28.49;100.00
26489;BME280;14169;43.684;10.484;2022-09-14T15:06:18;101261.38;;;28.40;100.00